createdAt,value
2023-01-21T00:01:52.507Z,16.63
2023-01-21T00:04:19.326Z,15.77
2023-01-21T00:06:46.009Z,16.23
2023-01-21T00:09:12.355Z,16.53
2023-01-21T00:11:38.686Z,16.87
2023-01-21T00:14:05.058Z,15.60
2023-01-21T00:16:37.463Z,15.93
2023-01-21T00:19:03.771Z,16.77
2023-01-21T00:21:30.139Z,18.07
2023-01-21T00:23:56.503Z,19.17
2023-01-21T00:26:22.941Z,17.63
2023-01-21T00:28:49.319Z,15.50
2023-01-21T00:31:15.703Z,18.27
2023-01-21T00:33:42.060Z,18.17
2023-01-21T00:36:09.876Z,18.23
2023-01-21T00:38:36.285Z,18.67
2023-01-21T00:41:06.037Z,19.17
2023-01-21T00:43:32.818Z,17.13
2023-01-21T00:45:59.262Z,17.63
2023-01-21T00:48:25.699Z,15.30
2023-01-21T00:50:53.829Z,18.47
2023-01-21T00:53:20.573Z,16.50
2023-01-21T00:55:46.893Z,18.00
2023-01-21T00:58:13.420Z,16.17
2023-01-21T01:00:39.872Z,17.33
2023-01-21T01:03:06.193Z,16.77
2023-01-21T01:05:33.097Z,17.90
2023-01-21T01:07:59.397Z,18.10
2023-01-21T01:10:25.797Z,17.60
2023-01-21T01:12:52.139Z,16.70
2023-01-21T01:15:18.998Z,16.27
2023-01-21T01:17:45.348Z,17.60
2023-01-21T01:20:11.838Z,15.20
2023-01-21T01:22:38.157Z,16.60
2023-01-21T01:25:04.576Z,16.47
2023-01-21T01:27:30.904Z,17.17
2023-01-21T01:29:57.213Z,16.37
2023-01-21T01:32:23.513Z,17.63
2023-01-21T01:34:49.819Z,18.13
2023-01-21T01:37:16.111Z,16.60
2023-01-21T01:39:42.383Z,16.27
2023-01-21T01:42:13.793Z,15.73
2023-01-21T01:44:54.401Z,16.00
2023-01-21T01:47:21.592Z,15.90
2023-01-21T01:49:48.133Z,14.40
2023-01-21T01:52:16.423Z,15.17
2023-01-21T01:54:45.885Z,16.83
2023-01-21T01:57:13.463Z,16.13
2023-01-21T01:59:40.483Z,14.63
2023-01-21T02:02:08.604Z,16.27
2023-01-21T02:04:38.021Z,16.13
2023-01-21T02:07:04.669Z,13.63
2023-01-21T02:09:31.035Z,16.13
2023-01-21T02:11:59.488Z,16.17
2023-01-21T02:14:26.319Z,15.70
2023-01-21T02:16:58.450Z,13.97
2023-01-21T02:19:38.938Z,14.10
2023-01-21T02:22:25.512Z,15.07
2023-01-21T02:25:10.430Z,14.00
2023-01-21T02:27:41.037Z,14.07
2023-01-21T02:30:41.004Z,16.53
2023-01-21T02:33:18.015Z,15.03
2023-01-21T02:36:02.919Z,15.90
2023-01-21T02:38:35.677Z,15.57
2023-01-21T02:41:11.469Z,15.60
2023-01-21T02:43:40.603Z,15.47
2023-01-21T02:46:15.754Z,17.07
2023-01-21T02:48:47.721Z,15.50
2023-01-21T02:51:14.327Z,15.53
2023-01-21T02:53:40.699Z,16.20
2023-01-21T02:56:12.846Z,17.27
2023-01-21T02:58:48.024Z,17.33
2023-01-21T03:01:24.636Z,15.30
2023-01-21T03:04:04.453Z,16.50
2023-01-21T03:06:30.791Z,15.87
2023-01-21T03:09:07.534Z,17.27
2023-01-21T03:11:33.945Z,15.67
2023-01-21T03:14:20.490Z,15.50
2023-01-21T03:16:59.722Z,17.23
2023-01-21T03:19:32.498Z,17.50
2023-01-21T03:21:59.390Z,17.00
2023-01-21T03:24:27.330Z,17.60
2023-01-21T03:26:55.465Z,17.47
2023-01-21T03:29:24.189Z,16.73
2023-01-21T03:31:53.781Z,15.20
2023-01-21T03:34:21.161Z,17.73
2023-01-21T03:36:48.877Z,17.60
2023-01-21T03:39:35.571Z,17.73
2023-01-21T03:42:02.301Z,17.40
2023-01-21T03:44:28.734Z,17.77
2023-01-21T03:46:58.089Z,17.63
2023-01-21T03:49:34.880Z,17.10
2023-01-21T03:52:01.756Z,17.53
2023-01-21T03:54:28.070Z,16.83
2023-01-21T03:56:54.403Z,16.17
2023-01-21T03:59:20.789Z,17.90
2023-01-21T04:01:47.091Z,18.10
2023-01-21T04:04:13.392Z,16.33
2023-01-21T04:06:39.693Z,16.83
2023-01-21T04:09:06.676Z,18.57
2023-01-21T04:11:33.524Z,17.43
2023-01-21T04:14:00.122Z,20.40
2023-01-21T04:16:26.512Z,18.37
2023-01-21T04:18:53.993Z,18.23
2023-01-21T04:21:20.325Z,19.47
2023-01-21T04:23:46.703Z,17.23
2023-01-21T04:26:13.039Z,19.17
2023-01-21T04:28:39.358Z,16.80
2023-01-21T04:31:05.721Z,17.97
2023-01-21T04:33:32.110Z,16.90
2023-01-21T04:36:01.367Z,17.53
2023-01-21T04:38:27.686Z,17.53
2023-01-21T04:40:54.002Z,18.00
2023-01-21T04:43:20.552Z,18.77
2023-01-21T04:45:46.923Z,16.70
2023-01-21T04:48:13.341Z,16.83
2023-01-21T04:50:39.652Z,17.63
2023-01-21T04:53:06.071Z,17.60
2023-01-21T04:55:32.704Z,17.37
2023-01-21T04:57:59.079Z,17.77
2023-01-21T05:00:26.559Z,18.30
2023-01-21T05:02:52.896Z,18.30
2023-01-21T05:05:19.858Z,16.87
2023-01-21T05:07:46.743Z,17.70
2023-01-21T05:10:17.220Z,17.10
2023-01-21T05:12:43.806Z,15.70
2023-01-21T05:15:10.547Z,17.67
2023-01-21T05:17:36.835Z,16.20
2023-01-21T05:20:03.620Z,16.57
2023-01-21T05:22:30.048Z,17.87
2023-01-21T05:24:56.362Z,14.90
2023-01-21T05:27:22.778Z,16.27
2023-01-21T05:29:49.095Z,16.77
2023-01-21T05:32:15.481Z,16.40
2023-01-21T05:34:41.801Z,17.60
2023-01-21T05:37:08.127Z,16.50
2023-01-21T05:39:34.582Z,16.37
2023-01-21T05:42:00.953Z,17.10
2023-01-21T05:44:27.323Z,16.10
2023-01-21T05:46:53.731Z,17.93
2023-01-21T05:49:20.081Z,15.60
2023-01-21T05:51:46.451Z,16.10
2023-01-21T05:54:13.002Z,16.63
2023-01-21T05:56:39.311Z,15.13
2023-01-21T05:59:05.599Z,15.83
2023-01-21T06:01:31.908Z,16.90
2023-01-21T06:03:58.242Z,15.10
2023-01-21T06:06:24.689Z,15.83
2023-01-21T06:08:51.073Z,16.07
2023-01-21T06:11:17.369Z,15.57
2023-01-21T06:13:43.699Z,16.07
2023-01-21T06:16:10.160Z,16.63
2023-01-21T06:18:37.605Z,15.83
2023-01-21T06:21:03.947Z,15.33
2023-01-21T06:23:30.331Z,15.37
2023-01-21T06:26:00.710Z,16.47
2023-01-21T06:28:27.360Z,15.37
2023-01-21T06:30:53.821Z,15.30
2023-01-21T06:33:20.150Z,14.93
2023-01-21T06:35:47.414Z,16.10
2023-01-21T06:38:13.959Z,15.13
2023-01-21T06:40:40.248Z,15.13
2023-01-21T06:43:08.165Z,15.90
2023-01-21T06:45:34.510Z,16.80
2023-01-21T06:48:00.903Z,15.37
2023-01-21T06:50:27.366Z,16.20
2023-01-21T06:52:53.703Z,15.23
2023-01-21T06:55:20.028Z,16.07
2023-01-21T06:57:46.349Z,17.43
2023-01-21T07:00:12.866Z,15.97
2023-01-21T07:02:39.361Z,15.13
2023-01-21T07:05:06.224Z,16.40
2023-01-21T07:07:32.597Z,17.20
2023-01-21T07:09:58.961Z,15.93
2023-01-21T07:12:25.271Z,15.13
2023-01-21T07:14:51.650Z,16.67
2023-01-21T07:17:17.963Z,15.60
2023-01-21T07:19:44.262Z,14.80
2023-01-21T07:22:11.146Z,15.00
2023-01-21T07:24:37.532Z,15.13
2023-01-21T07:27:06.124Z,14.60
2023-01-21T07:29:32.395Z,15.77
2023-01-21T07:31:58.747Z,16.03
2023-01-21T07:34:25.203Z,15.20
2023-01-21T07:36:51.614Z,16.50
2023-01-21T07:39:18.028Z,16.03
2023-01-21T07:41:44.423Z,17.07
2023-01-21T07:44:10.738Z,16.10
2023-01-21T07:46:37.166Z,16.67
2023-01-21T07:49:03.553Z,16.03
2023-01-21T07:51:29.939Z,18.30
2023-01-21T07:53:56.808Z,16.87
2023-01-21T07:56:25.105Z,18.17
2023-01-21T07:58:51.506Z,19.30
2023-01-21T08:01:18.457Z,17.70
2023-01-21T08:03:44.819Z,18.00
2023-01-21T08:06:11.184Z,17.13
2023-01-21T08:08:37.591Z,16.43
2023-01-21T08:11:03.973Z,16.80
2023-01-21T08:13:30.321Z,19.07
2023-01-21T08:15:57.173Z,16.27
2023-01-21T08:18:24.002Z,16.93
2023-01-21T08:20:54.075Z,17.27
2023-01-21T08:23:20.460Z,16.13
2023-01-21T08:25:46.824Z,16.27
2023-01-21T08:28:14.229Z,17.20
2023-01-21T08:30:40.590Z,16.53
2023-01-21T08:33:06.972Z,15.87
2023-01-21T08:35:33.300Z,18.03
2023-01-21T08:37:59.669Z,16.70
2023-01-21T08:40:27.368Z,16.70
2023-01-21T08:43:00.207Z,17.90
2023-01-21T08:45:27.110Z,17.03
2023-01-21T08:47:53.753Z,16.27
2023-01-21T08:50:20.467Z,17.17
2023-01-21T08:52:53.700Z,17.17
2023-01-21T08:55:20.811Z,16.93
2023-01-21T08:57:48.459Z,18.93
2023-01-21T09:00:15.229Z,17.73
2023-01-21T09:02:41.661Z,18.50
2023-01-21T09:05:08.138Z,18.00
2023-01-21T09:07:34.455Z,19.10
2023-01-21T09:10:00.757Z,19.77
2023-01-21T09:12:27.159Z,18.70
2023-01-21T09:14:53.434Z,19.80
2023-01-21T09:17:19.757Z,19.57
2023-01-21T09:19:47.201Z,17.70
2023-01-21T09:22:13.889Z,19.17
2023-01-21T09:24:40.205Z,20.40
2023-01-21T09:27:08.147Z,19.60
2023-01-21T09:29:34.671Z,17.53
2023-01-21T09:32:01.654Z,19.20
2023-01-21T09:34:28.214Z,20.00
2023-01-21T09:37:00.379Z,19.93
2023-01-21T09:39:26.709Z,19.07
2023-01-21T09:41:54.500Z,19.67
2023-01-21T09:44:20.775Z,19.10
2023-01-21T09:47:16.565Z,19.47
2023-01-21T09:49:45.464Z,19.33
2023-01-21T09:52:29.959Z,19.47
2023-01-21T09:54:57.227Z,20.40
2023-01-21T09:57:35.824Z,19.70
2023-01-21T10:00:02.137Z,19.87
2023-01-21T10:02:31.580Z,21.40
2023-01-21T10:05:13.762Z,19.90
2023-01-21T10:07:45.331Z,19.17
2023-01-21T10:10:21.827Z,21.27
2023-01-21T10:12:54.655Z,23.80
2023-01-21T10:15:20.976Z,21.93
2023-01-21T10:17:58.156Z,21.80
2023-01-21T10:20:24.445Z,20.97
2023-01-21T10:23:10.618Z,20.93
2023-01-21T10:25:37.533Z,18.67
2023-01-21T10:28:16.637Z,20.43
2023-01-21T10:30:44.058Z,19.37
2023-01-21T10:33:18.379Z,18.37
2023-01-21T10:35:52.833Z,19.23
2023-01-21T10:38:19.259Z,18.77
2023-01-21T10:40:53.658Z,18.80
2023-01-21T10:43:23.139Z,17.90
2023-01-21T10:46:01.739Z,18.47
2023-01-21T10:48:34.983Z,15.97
2023-01-21T10:51:06.758Z,18.93
2023-01-21T10:53:45.124Z,20.20
2023-01-21T10:56:22.983Z,20.53
2023-01-21T10:58:54.251Z,18.77
2023-01-21T11:01:36.400Z,17.13
2023-01-21T11:04:20.130Z,17.70
2023-01-21T11:06:52.263Z,19.73
2023-01-21T11:09:18.652Z,18.90
2023-01-21T11:11:46.418Z,18.03
2023-01-21T11:14:12.748Z,18.57
2023-01-21T11:16:39.215Z,15.77
2023-01-21T11:19:06.469Z,18.13
2023-01-21T11:21:33.119Z,15.60
2023-01-21T11:24:05.344Z,15.83
2023-01-21T11:26:33.786Z,16.90
2023-01-21T11:29:16.635Z,15.90
2023-01-21T11:31:48.861Z,14.97
2023-01-21T11:34:19.921Z,15.10
2023-01-21T11:37:04.822Z,14.17
2023-01-21T11:39:33.058Z,15.07
2023-01-21T11:42:04.810Z,16.67
2023-01-21T11:44:32.439Z,15.03
2023-01-21T11:46:58.983Z,15.23
2023-01-21T11:49:30.002Z,17.00
2023-01-21T11:52:22.686Z,14.43
2023-01-21T11:54:49.173Z,15.13
2023-01-21T11:57:26.873Z,15.30
2023-01-21T11:59:54.933Z,14.67
2023-01-21T12:02:27.757Z,15.30
2023-01-21T12:04:56.968Z,15.83
2023-01-21T12:07:27.617Z,15.50
2023-01-21T12:10:02.846Z,16.30
2023-01-21T12:12:41.495Z,15.17
2023-01-21T12:15:16.372Z,14.77
2023-01-21T12:18:01.535Z,15.03
2023-01-21T12:20:40.951Z,15.43
2023-01-21T12:23:26.054Z,15.73
2023-01-21T12:25:52.356Z,15.10
2023-01-21T12:28:37.515Z,16.73
2023-01-21T12:31:23.877Z,16.17
2023-01-21T12:33:55.113Z,14.27
2023-01-21T12:36:32.188Z,14.00
2023-01-21T12:39:18.785Z,14.30
2023-01-21T12:41:46.961Z,16.57
2023-01-21T12:44:35.184Z,13.43
2023-01-21T12:47:05.196Z,14.67
2023-01-21T12:49:54.673Z,14.43
2023-01-21T12:52:24.661Z,12.10
2023-01-21T12:55:13.990Z,13.90
2023-01-21T12:57:56.476Z,11.30
2023-01-21T13:00:25.305Z,14.47
2023-01-21T13:02:56.436Z,12.20
2023-01-21T13:05:29.563Z,13.13
2023-01-21T13:08:16.208Z,13.43
2023-01-21T13:10:45.359Z,12.60
2023-01-21T13:13:17.132Z,11.33
2023-01-21T13:15:44.892Z,13.70
2023-01-21T13:18:14.239Z,11.90
2023-01-21T13:20:43.662Z,13.87
2023-01-21T13:23:29.350Z,13.53
2023-01-21T13:26:03.569Z,12.77
2023-01-21T13:28:38.937Z,13.17
2023-01-21T13:31:11.989Z,11.00
2023-01-21T13:33:41.402Z,12.70
2023-01-21T13:36:17.009Z,11.63
2023-01-21T13:38:54.311Z,13.80
2023-01-21T13:41:31.447Z,12.37
2023-01-21T13:44:09.184Z,12.93
2023-01-21T13:46:38.119Z,12.17
2023-01-21T13:49:08.642Z,11.67
2023-01-21T13:51:43.350Z,11.43
2023-01-21T13:54:15.506Z,12.27
2023-01-21T13:57:05.152Z,14.17
2023-01-21T13:59:33.632Z,12.70
2023-01-21T14:02:03.478Z,12.67
2023-01-21T14:04:33.376Z,12.47
2023-01-21T14:07:09.209Z,13.23
2023-01-21T14:09:38.724Z,13.07
2023-01-21T14:12:08.962Z,12.10
2023-01-21T14:14:35.296Z,12.90
2023-01-21T14:17:20.701Z,14.07
2023-01-21T14:20:05.563Z,12.37
2023-01-21T14:23:01.597Z,14.10
2023-01-21T14:25:54.100Z,12.90
2023-01-21T14:28:21.253Z,13.03
2023-01-21T14:31:06.908Z,13.37
2023-01-21T14:33:44.097Z,12.97
2023-01-21T14:36:36.709Z,13.00
2023-01-21T14:39:21.811Z,12.60
2023-01-21T14:41:54.283Z,14.70
2023-01-21T14:44:39.611Z,13.30
2023-01-21T14:47:29.423Z,12.80
2023-01-21T14:49:56.707Z,12.17
2023-01-21T14:52:30.617Z,12.90
2023-01-21T14:54:57.049Z,13.33
2023-01-21T14:57:31.630Z,14.23
2023-01-21T15:00:13.319Z,12.97
2023-01-21T15:02:44.165Z,14.60
2023-01-21T15:05:10.490Z,12.17
2023-01-21T15:07:41.121Z,13.93
2023-01-21T15:10:14.513Z,11.87
2023-01-21T15:12:50.428Z,14.63
2023-01-21T15:15:25.968Z,12.20
2023-01-21T15:17:59.481Z,12.43
2023-01-21T15:20:44.569Z,10.90
2023-01-21T15:23:20.041Z,10.47
2023-01-21T15:26:01.665Z,11.43
2023-01-21T15:28:46.965Z,11.80
2023-01-21T15:31:33.389Z,12.00
2023-01-21T15:34:01.716Z,11.27
2023-01-21T15:36:30.979Z,12.07
2023-01-21T15:39:02.067Z,10.90
2023-01-21T15:41:49.132Z,10.50
2023-01-21T15:44:34.843Z,11.33
2023-01-21T15:47:07.192Z,13.03
2023-01-21T15:49:43.187Z,12.60
2023-01-21T15:52:13.455Z,13.13
2023-01-21T15:54:45.867Z,13.40
2023-01-21T15:57:19.891Z,13.63
2023-01-21T15:59:46.243Z,10.50
2023-01-21T16:02:22.632Z,9.43
2023-01-21T16:04:55.148Z,8.53
2023-01-21T16:07:40.321Z,8.07
2023-01-21T16:10:25.017Z,8.20
2023-01-21T16:13:26.999Z,8.37
2023-01-21T16:15:53.800Z,8.90
2023-01-21T16:18:29.818Z,8.53
2023-01-21T16:20:57.527Z,7.80
2023-01-21T16:23:25.390Z,9.40
2023-01-21T16:25:52.967Z,9.50
2023-01-21T16:28:20.181Z,9.33
2023-01-21T16:30:54.192Z,10.23
2023-01-21T16:33:21.961Z,10.03
2023-01-21T16:35:53.007Z,10.40
2023-01-21T16:38:20.525Z,10.10
2023-01-21T16:40:50.730Z,10.23
2023-01-21T16:43:17.134Z,9.37
2023-01-21T16:45:48.764Z,8.60
2023-01-21T16:48:20.424Z,10.10
2023-01-21T16:50:47.626Z,10.23
2023-01-21T16:53:15.127Z,11.20
2023-01-21T16:55:48.831Z,12.60
2023-01-21T16:58:29.635Z,10.17
2023-01-21T17:01:09.077Z,10.93
2023-01-21T17:03:35.765Z,10.73
2023-01-21T17:06:11.134Z,12.00
2023-01-21T17:08:38.093Z,11.23
2023-01-21T17:11:07.628Z,12.80
2023-01-21T17:13:34.349Z,13.10
2023-01-21T17:16:01.957Z,12.87
2023-01-21T17:18:30.338Z,13.00
2023-01-21T17:21:01.733Z,13.27
2023-01-21T17:23:30.050Z,17.33
2023-01-21T17:26:19.518Z,13.87
2023-01-21T17:28:53.701Z,14.37
2023-01-21T17:31:26.939Z,13.67
2023-01-21T17:34:02.536Z,14.00
2023-01-21T17:36:33.820Z,13.90
2023-01-21T17:39:00.669Z,13.60
2023-01-21T17:41:34.551Z,14.23
2023-01-21T17:44:02.816Z,13.00
2023-01-21T17:46:29.823Z,14.27
2023-01-21T17:48:58.717Z,14.27
2023-01-21T17:51:27.088Z,15.33
2023-01-21T17:53:58.888Z,15.83
2023-01-21T17:56:39.210Z,16.57
2023-01-21T17:59:24.004Z,14.27
2023-01-21T18:01:50.435Z,14.90
2023-01-21T18:04:16.741Z,18.77
2023-01-21T18:06:43.247Z,16.40
2023-01-21T18:09:10.484Z,16.30
2023-01-21T18:11:36.815Z,14.57
2023-01-21T18:14:03.124Z,14.07
2023-01-21T18:16:30.013Z,13.97
2023-01-21T18:18:56.385Z,12.07
2023-01-21T18:21:22.859Z,13.87
2023-01-21T18:23:49.376Z,11.27
2023-01-21T18:26:28.972Z,13.43
2023-01-21T18:28:55.465Z,11.97
2023-01-21T18:31:22.665Z,11.30
2023-01-21T18:33:49.084Z,12.20
2023-01-21T18:36:15.403Z,11.43
2023-01-21T18:38:41.774Z,11.40
2023-01-21T18:41:08.903Z,11.70
2023-01-21T18:43:35.332Z,10.70
2023-01-21T18:46:01.900Z,11.33
2023-01-21T18:48:29.541Z,9.77
2023-01-21T18:50:55.962Z,10.50
2023-01-21T18:53:22.408Z,12.60
2023-01-21T18:55:50.158Z,13.03
2023-01-21T18:58:16.727Z,12.33
2023-01-21T19:00:43.141Z,11.37
2023-01-21T19:03:11.921Z,10.40
2023-01-21T19:05:38.862Z,10.03
2023-01-21T19:08:11.142Z,11.03
2023-01-21T19:10:38.582Z,10.93
2023-01-21T19:13:04.980Z,10.07
2023-01-21T19:15:31.291Z,10.40
2023-01-21T19:17:57.953Z,10.43
2023-01-21T19:20:25.985Z,11.17
2023-01-21T19:22:53.371Z,11.27
2023-01-21T19:25:20.847Z,11.10
2023-01-21T19:27:48.784Z,12.20
2023-01-21T19:30:15.453Z,10.67
2023-01-21T19:32:41.928Z,10.10
2023-01-21T19:35:08.461Z,11.70
2023-01-21T19:37:34.970Z,11.77
2023-01-21T19:40:01.348Z,13.03
2023-01-21T19:42:27.677Z,13.80
2023-01-21T19:44:54.097Z,13.90
2023-01-21T19:47:24.774Z,13.97
2023-01-21T19:49:51.126Z,13.17
2023-01-21T19:52:17.473Z,13.80
2023-01-21T19:54:43.904Z,14.27
2023-01-21T19:57:14.373Z,13.40
2023-01-21T19:59:41.092Z,12.33
2023-01-21T20:02:09.618Z,13.27
2023-01-21T20:04:35.984Z,12.97
2023-01-21T20:07:02.375Z,14.67
2023-01-21T20:09:30.854Z,13.63
2023-01-21T20:11:57.165Z,13.97
2023-01-21T20:14:23.497Z,12.07
2023-01-21T20:16:51.441Z,13.87
2023-01-21T20:19:19.188Z,13.33
2023-01-21T20:22:00.504Z,11.27
2023-01-21T20:24:30.088Z,11.93
2023-01-21T20:26:56.673Z,10.90
2023-01-21T20:29:23.071Z,11.37
2023-01-21T20:31:49.566Z,9.70
2023-01-21T20:34:15.900Z,9.97
2023-01-21T20:36:44.227Z,9.53
2023-01-21T20:39:10.871Z,8.77
2023-01-21T20:41:38.989Z,8.73
2023-01-21T20:44:05.283Z,9.30
2023-01-21T20:46:31.605Z,8.70
2023-01-21T20:48:58.433Z,8.00
2023-01-21T20:51:25.302Z,8.27
2023-01-21T20:53:51.659Z,8.63
2023-01-21T20:56:23.906Z,7.93
2023-01-21T20:58:50.533Z,8.80
2023-01-21T21:01:18.845Z,7.77
2023-01-21T21:03:45.506Z,8.00
2023-01-21T21:06:16.421Z,8.37
2023-01-21T21:08:42.776Z,9.10
2023-01-21T21:11:09.415Z,10.20
2023-01-21T21:13:36.073Z,11.80
2023-01-21T21:16:03.424Z,11.87
2023-01-21T21:18:30.808Z,11.93
2023-01-21T21:20:57.124Z,12.50
2023-01-21T21:23:23.974Z,9.77
2023-01-21T21:25:50.433Z,9.10
2023-01-21T21:28:18.129Z,8.23
2023-01-21T21:30:44.548Z,9.30
2023-01-21T21:33:15.374Z,9.87
2023-01-21T21:35:44.547Z,9.00
2023-01-21T21:38:15.575Z,8.57
2023-01-21T21:40:44.195Z,8.90
2023-01-21T21:43:31.609Z,10.03
2023-01-21T21:46:17.055Z,10.23
2023-01-21T21:48:45.023Z,12.30
2023-01-21T21:51:17.584Z,12.00
2023-01-21T21:53:44.558Z,12.00
2023-01-21T21:56:15.153Z,11.03
2023-01-21T21:58:41.779Z,9.73
2023-01-21T22:01:08.465Z,9.60
2023-01-21T22:03:35.238Z,8.93
2023-01-21T22:06:03.944Z,10.43
2023-01-21T22:08:32.555Z,9.30
2023-01-21T22:11:00.565Z,9.33
2023-01-21T22:13:28.217Z,10.40
2023-01-21T22:15:55.382Z,9.67
2023-01-21T22:18:21.699Z,9.80
2023-01-21T22:20:48.093Z,9.13
2023-01-21T22:23:14.396Z,8.80
2023-01-21T22:25:40.743Z,11.30
2023-01-21T22:28:07.055Z,9.40
2023-01-21T22:30:33.637Z,10.17
2023-01-21T22:33:00.106Z,9.33
2023-01-21T22:35:26.497Z,10.73
2023-01-21T22:37:52.805Z,9.13
2023-01-21T22:40:19.173Z,9.43
2023-01-21T22:42:45.491Z,10.10
2023-01-21T22:45:12.084Z,10.40
2023-01-21T22:47:38.405Z,10.57
2023-01-21T22:50:04.966Z,10.27
2023-01-21T22:52:31.561Z,10.23
2023-01-21T22:54:57.864Z,10.63
2023-01-21T22:57:24.159Z,9.10
2023-01-21T22:59:50.541Z,9.80
2023-01-21T23:02:18.284Z,11.37
2023-01-21T23:04:45.713Z,9.37
2023-01-21T23:07:12.056Z,11.03
2023-01-21T23:09:38.390Z,10.67
2023-01-21T23:12:04.825Z,10.43
2023-01-21T23:14:31.188Z,10.57
2023-01-21T23:16:57.520Z,12.27
2023-01-21T23:19:23.843Z,11.33
2023-01-21T23:21:50.152Z,12.43
2023-01-21T23:24:16.523Z,13.93
2023-01-21T23:26:42.862Z,13.63
2023-01-21T23:29:09.193Z,14.07
2023-01-21T23:31:35.683Z,11.83
2023-01-21T23:34:03.266Z,11.63
2023-01-21T23:36:29.665Z,12.47
2023-01-21T23:38:55.984Z,11.77
2023-01-21T23:41:22.348Z,10.63
2023-01-21T23:43:48.634Z,10.33
2023-01-21T23:46:22.225Z,9.17
2023-01-21T23:48:48.667Z,8.97
2023-01-21T23:51:15.542Z,9.97
2023-01-21T23:53:42.009Z,9.83
2023-01-21T23:56:08.492Z,10.40
2023-01-21T23:58:34.993Z,8.77
